AirNav   Air Wisconsin Up To $57,000 Bonus
 
 395 users online  

10AZ Farm Ag Airport
Buckeye, Arizona, USA

GOING TO BUCKEYE?


FAA INFORMATION EFFECTIVE 10 OCTOBER 2019

Location

FAA Identifier: 10AZ
Lat/Long: 33-22-00.1500N 112-37-07.6010W
33-22.002500N 112-37.126683W
33.3667083,-112.6187781
(estimated)
Elevation: 860 ft. / 262 m (estimated)
Variation: 13E (1985)
From city: 2 miles W of BUCKEYE, AZ
Time zone: UTC -7 (year round; does not observe DST)
Zip code: 85326

Airport Operations

Airport use: Private use. Permission required prior to landing
Control tower: no
ARTCC: ALBUQUERQUE CENTER
FSS: PRESCOTT FLIGHT SERVICE STATION
Attendance: MON-SAT 0800-1700
Pattern altitude: 1660 ft. MSL
Wind indicator: yes
Segmented circle: no
Lights: SS-SR

Airport Communications

WX AWOS-3 at BXK (5 nm NW): 119.625 (623-386-7627)
WX ASOS at LUF (16 nm NE): 267.4 (623-877-8609)
WX AWOS-3 at GEU (19 nm NE): 119.425 (623-877-8609)

Nearby radio navigation aids

VOR radial/distance  VOR name  Freq  Var
BXKr103/11.5BUCKEYE VORTAC110.6014E
GBNr352/24.8GILA BEND VORTAC116.6014E
PXRr251/32.7PHOENIX VORTAC115.6012E

Airport Services

Fuel available: 100 80
Parking: hangars
Airframe service: MINOR
Powerplant service: MINOR
Bottled oxygen: NONE
Bulk oxygen: NONE

Runway Information

Runway 8/26

Dimensions: 3407 x 150 ft. / 1038 x 46 m
CENTER 40' PAVED.
Surface: asphalt/dirt
Runway edge lights: low intensity
RUNWAY 8  RUNWAY 26
Elevation: 860.0 ft.860.0 ft.
Traffic pattern: leftleft
Runway end identifier lights: nono
Obstructions: trees, 350 ft. from runway, 3:1 slope to clearpline, 1450 ft. from runway, 27:1 slope to clear
5' FENCE 200' FROM THR.

Airport Ownership and Management from official FAA records

Ownership: Privately-owned
Owner: OOPS PROPERTIES LLC
PO BOX 428
BUCKEYE, AZ 85326
Phone (623) 386-4312
Manager: HAL HEIDEN
PO BOX 428
BUCKEYE, AZ 85326
Phone (602) 377-2416

Airport Operational Statistics

Aircraft based on the field: 15
Single engine airplanes: 15
    
Aircraft operations: avg 68/day
97% local general aviation
3% transient general aviation

Additional Remarks

FOR CD CTC LUKE APCH AT 623-856-7361. IF UNA, CTC PHOENIX APCH AT 602-306-2565.

Instrument Procedures

There are no published instrument procedures at 10AZ.

Some nearby airports with instrument procedures:

KGYR - Phoenix Goodyear Airport (13 nm E)
KLUF - Luke Air Force Base (16 nm NE)
KGEU - Glendale Municipal Airport (19 nm NE)
KPHX - Phoenix Sky Harbor International Airport (31 nm E)
KDVT - Phoenix Deer Valley Airport (33 nm NE)
 
Loc | Ops | Rwys | IFR | FBO | Links
Com | Nav | Svcs | Stats | Notes
Area around 10AZ (Farm Ag Airport)
 
Road maps at: MapQuest Bing Google
 
Aerial photo
WARNING: Photo may not be current or correct
Aerial photo of 10AZ (Farm Ag Airport)
Do you have a better or more recent aerial photo of Farm Ag Airport that you would like to share? If so, please send us your photo.

 
Sectional chart

 
Airport distance calculator
Flying to Farm Ag Airport? Find the distance to fly.

From to 10AZ

Sunrise and sunset
Times for 18-Oct-2019
 Local
(UTC-7)
 Zulu
(UTC)
Morning civil twilight06:1313:13
Sunrise06:3813:38
Sunset17:5300:53
Evening civil twilight18:1801:18

Current date and time
Zulu (UTC)  18-Oct-2019 10:34:29
Local (UTC-7)  18-Oct-2019 03:34:29
 
METAR
KBXK 
5nm NW 
181015Z AUTO 30004KT 10SM CLR 19/02 A2970 RMK A01
KGYR 
13nm E 
180347Z 20006KT 10SM FEW100 FEW250 27/08 A2965 RMK LAST
KLUF 
16nm NE 
180958Z AUTO 20003KT 10SM CLR 21/11 A2968 RMK AO2 SLP038 T02130110 $
KGEU 
19nm NE 
180250Z 20011KT 10SM FEW100 29/07 A2964 RMK LAST
TAF
KLUF 
16nm NE 
180400Z 1804/1910 VRB06KT 9999 SKC QNH2963INS BECMG 1821/1822 23009KT 9999 SKC QNH2972INS BECMG 1903/1904 VRB06KT 9999 SKC QNH2973INS TX33/1821Z TN14/1812Z
NOTAMs
Click for the latest NOTAMs
NOTAMs are issued by the DoD/FAA and will open in a separate window not controlled by AirNav.

 

 
 

Would you like to see your business listed on this page?

 If your business provides an interesting product or service to pilots, flight crews, aircraft, or users of the Farm Ag Airport, you should consider listing it here.  To start the listing process, click on the button below
 
Add a business
 

Other Pages about Farm Ag Airport

Update a link
 
Copyright © AirNav, LLC. All rights reserved. Privacy Policy  Contact